sensor_id;sensor_type;location;lat;lon;timestamp;P1;durP1;ratioP1;P2;durP2;ratioP2
35777;SDS011;21899;42.662;23.316;2023-04-03T00:02:13;9.70;;;3.55;;
35777;SDS011;21899;42.662;23.316;2023-04-03T00:04:38;7.75;;;3.42;;
35777;SDS011;21899;42.662;23.316;2023-04-03T00:07:03;7.07;;;3.53;;
35777;SDS011;21899;42.662;23.316;2023-04-03T00:09:29;6.15;;;3.58;;
35777;SDS011;21899;42.662;23.316;2023-04-03T00:11:55;8.18;;;3.40;;
35777;SDS011;21899;42.662;23.316;2023-04-03T00:14:20;8.63;;;3.55;;
35777;SDS011;21899;42.662;23.316;2023-04-03T00:16:45;8.57;;;3.33;;
35777;SDS011;21899;42.662;23.316;2023-04-03T00:19:11;6.82;;;3.20;;
35777;SDS011;21899;42.662;23.316;2023-04-03T00:21:39;8.82;;;4.30;;
35777;SDS011;21899;42.662;23.316;2023-04-03T00:24:05;12.25;;;4.20;;
35777;SDS011;21899;42.662;23.316;2023-04-03T00:26:31;10.35;;;4.35;;
35777;SDS011;21899;42.662;23.316;2023-04-03T00:28:56;10.10;;;4.50;;
35777;SDS011;21899;42.662;23.316;2023-04-03T00:31:22;10.52;;;4.90;;
35777;SDS011;21899;42.662;23.316;2023-04-03T00:33:47;9.88;;;5.25;;
35777;SDS011;21899;42.662;23.316;2023-04-03T00:36:13;16.23;;;7.32;;
35777;SDS011;21899;42.662;23.316;2023-04-03T00:38:38;13.00;;;6.53;;
35777;SDS011;21899;42.662;23.316;2023-04-03T00:41:04;9.43;;;5.50;;
35777;SDS011;21899;42.662;23.316;2023-04-03T00:43:30;10.00;;;5.38;;
35777;SDS011;21899;42.662;23.316;2023-04-03T00:45:57;14.18;;;6.50;;
35777;SDS011;21899;42.662;23.316;2023-04-03T00:48:31;16.80;;;7.97;;
35777;SDS011;21899;42.662;23.316;2023-04-03T00:50:59;19.27;;;8.75;;
35777;SDS011;21899;42.662;23.316;2023-04-03T00:53:29;14.25;;;7.13;;
35777;SDS011;21899;42.662;23.316;2023-04-03T00:56:02;14.20;;;7.28;;
35777;SDS011;21899;42.662;23.316;2023-04-03T00:58:33;15.25;;;7.60;;
35777;SDS011;21899;42.662;23.316;2023-04-03T01:01:07;15.05;;;6.65;;
35777;SDS011;21899;42.662;23.316;2023-04-03T01:03:36;15.13;;;6.88;;
35777;SDS011;21899;42.662;23.316;2023-04-03T01:06:02;18.77;;;7.15;;
35777;SDS011;21899;42.662;23.316;2023-04-03T01:08:28;12.60;;;6.13;;
35777;SDS011;21899;42.662;23.316;2023-04-03T01:10:53;9.60;;;3.80;;
35777;SDS011;21899;42.662;23.316;2023-04-03T01:13:21;7.35;;;3.30;;
35777;SDS011;21899;42.662;23.316;2023-04-03T01:15:51;9.30;;;3.80;;
35777;SDS011;21899;42.662;23.316;2023-04-03T01:18:16;5.47;;;2.63;;
35777;SDS011;21899;42.662;23.316;2023-04-03T01:25:57;4.07;;;2.33;;
35777;SDS011;21899;42.662;23.316;2023-04-03T01:28:24;5.63;;;2.75;;
35777;SDS011;21899;42.662;23.316;2023-04-03T01:33:31;6.88;;;2.67;;
35777;SDS011;21899;42.662;23.316;2023-04-03T01:35:57;5.68;;;3.10;;
35777;SDS011;21899;42.662;23.316;2023-04-03T01:38:23;6.72;;;2.55;;
35777;SDS011;21899;42.662;23.316;2023-04-03T01:40:49;5.25;;;2.80;;
35777;SDS011;21899;42.662;23.316;2023-04-03T01:43:14;5.22;;;2.55;;
35777;SDS011;21899;42.662;23.316;2023-04-03T01:45:40;5.95;;;3.05;;
35777;SDS011;21899;42.662;23.316;2023-04-03T01:48:06;5.78;;;2.58;;
35777;SDS011;21899;42.662;23.316;2023-04-03T01:50:31;6.70;;;3.10;;
35777;SDS011;21899;42.662;23.316;2023-04-03T01:52:57;7.53;;;3.38;;
35777;SDS011;21899;42.662;23.316;2023-04-03T01:55:22;8.00;;;3.22;;
35777;SDS011;21899;42.662;23.316;2023-04-03T01:57:47;4.60;;;2.65;;
35777;SDS011;21899;42.662;23.316;2023-04-03T02:00:13;7.00;;;2.97;;
35777;SDS011;21899;42.662;23.316;2023-04-03T02:02:39;6.63;;;3.20;;
35777;SDS011;21899;42.662;23.316;2023-04-03T02:05:05;5.40;;;3.30;;
35777;SDS011;21899;42.662;23.316;2023-04-03T02:07:31;5.10;;;2.80;;
35777;SDS011;21899;42.662;23.316;2023-04-03T02:09:56;6.82;;;3.42;;
35777;SDS011;21899;42.662;23.316;2023-04-03T02:12:22;6.35;;;3.20;;
35777;SDS011;21899;42.662;23.316;2023-04-03T02:14:47;8.93;;;3.53;;
35777;SDS011;21899;42.662;23.316;2023-04-03T02:17:12;6.25;;;3.50;;
35777;SDS011;21899;42.662;23.316;2023-04-03T02:19:38;7.88;;;3.60;;
35777;SDS011;21899;42.662;23.316;2023-04-03T02:22:04;7.45;;;3.75;;
35777;SDS011;21899;42.662;23.316;2023-04-03T02:24:30;8.38;;;4.75;;
35777;SDS011;21899;42.662;23.316;2023-04-03T02:26:56;9.55;;;4.97;;
35777;SDS011;21899;42.662;23.316;2023-04-03T02:29:22;9.48;;;4.13;;
35777;SDS011;21899;42.662;23.316;2023-04-03T02:31:48;8.02;;;3.80;;
35777;SDS011;21899;42.662;23.316;2023-04-03T02:34:13;6.95;;;3.97;;
35777;SDS011;21899;42.662;23.316;2023-04-03T02:36:39;6.88;;;4.38;;
35777;SDS011;21899;42.662;23.316;2023-04-03T02:39:04;11.82;;;4.80;;
35777;SDS011;21899;42.662;23.316;2023-04-03T02:41:30;7.80;;;4.50;;
35777;SDS011;21899;42.662;23.316;2023-04-03T02:44:03;11.25;;;5.78;;
35777;SDS011;21899;42.662;23.316;2023-04-03T02:46:30;10.65;;;6.18;;
35777;SDS011;21899;42.662;23.316;2023-04-03T02:48:56;12.40;;;6.07;;
35777;SDS011;21899;42.662;23.316;2023-04-03T02:51:21;10.40;;;5.72;;
35777;SDS011;21899;42.662;23.316;2023-04-03T02:53:48;12.18;;;6.15;;
35777;SDS011;21899;42.662;23.316;2023-04-03T02:56:14;11.35;;;5.80;;
35777;SDS011;21899;42.662;23.316;2023-04-03T02:58:40;10.23;;;5.78;;
35777;SDS011;21899;42.662;23.316;2023-04-03T03:01:05;16.92;;;6.55;;
35777;SDS011;21899;42.662;23.316;2023-04-03T03:03:31;13.98;;;6.20;;
35777;SDS011;21899;42.662;23.316;2023-04-03T03:06:00;10.52;;;5.72;;
35777;SDS011;21899;42.662;23.316;2023-04-03T03:08:30;11.93;;;5.87;;
35777;SDS011;21899;42.662;23.316;2023-04-03T03:10:55;11.35;;;5.70;;
35777;SDS011;21899;42.662;23.316;2023-04-03T03:13:21;14.80;;;5.63;;
35777;SDS011;21899;42.662;23.316;2023-04-03T03:15:46;10.27;;;5.88;;
35777;SDS011;21899;42.662;23.316;2023-04-03T03:18:12;13.25;;;6.00;;
35777;SDS011;21899;42.662;23.316;2023-04-03T03:20:37;11.80;;;5.30;;
35777;SDS011;21899;42.662;23.316;2023-04-03T03:23:02;10.10;;;5.95;;
35777;SDS011;21899;42.662;23.316;2023-04-03T03:25:28;11.27;;;6.55;;
35777;SDS011;21899;42.662;23.316;2023-04-03T03:27:53;16.35;;;6.38;;
35777;SDS011;21899;42.662;23.316;2023-04-03T03:30:19;14.15;;;6.13;;
35777;SDS011;21899;42.662;23.316;2023-04-03T03:32:45;13.80;;;6.75;;
35777;SDS011;21899;42.662;23.316;2023-04-03T03:35:10;14.80;;;7.10;;
35777;SDS011;21899;42.662;23.316;2023-04-03T03:37:35;12.15;;;6.03;;
35777;SDS011;21899;42.662;23.316;2023-04-03T03:40:01;14.20;;;6.88;;
35777;SDS011;21899;42.662;23.316;2023-04-03T03:42:27;15.35;;;7.05;;
35777;SDS011;21899;42.662;23.316;2023-04-03T03:44:52;17.80;;;7.40;;
35777;SDS011;21899;42.662;23.316;2023-04-03T03:47:18;16.27;;;7.38;;
35777;SDS011;21899;42.662;23.316;2023-04-03T03:49:43;16.25;;;7.60;;
35777;SDS011;21899;42.662;23.316;2023-04-03T03:52:09;19.52;;;7.55;;
35777;SDS011;21899;42.662;23.316;2023-04-03T03:54:37;19.42;;;7.32;;
35777;SDS011;21899;42.662;23.316;2023-04-03T03:57:03;14.18;;;7.47;;
35777;SDS011;21899;42.662;23.316;2023-04-03T03:59:29;11.55;;;6.05;;
35777;SDS011;21899;42.662;23.316;2023-04-03T04:01:55;14.02;;;7.07;;
35777;SDS011;21899;42.662;23.316;2023-04-03T04:04:20;13.27;;;6.63;;
35777;SDS011;21899;42.662;23.316;2023-04-03T04:06:46;16.33;;;7.47;;
35777;SDS011;21899;42.662;23.316;2023-04-03T04:09:11;14.18;;;7.57;;
35777;SDS011;21899;42.662;23.316;2023-04-03T04:11:37;14.65;;;6.57;;
35777;SDS011;21899;42.662;23.316;2023-04-03T04:14:04;12.93;;;7.03;;
35777;SDS011;21899;42.662;23.316;2023-04-03T04:16:30;12.10;;;6.50;;
35777;SDS011;21899;42.662;23.316;2023-04-03T04:18:55;16.70;;;8.05;;
35777;SDS011;21899;42.662;23.316;2023-04-03T04:21:21;12.77;;;6.97;;
35777;SDS011;21899;42.662;23.316;2023-04-03T04:23:46;18.02;;;7.03;;
35777;SDS011;21899;42.662;23.316;2023-04-03T04:26:11;10.77;;;5.28;;
35777;SDS011;21899;42.662;23.316;2023-04-03T04:28:37;9.43;;;4.93;;
35777;SDS011;21899;42.662;23.316;2023-04-03T04:31:02;10.45;;;4.70;;
35777;SDS011;21899;42.662;23.316;2023-04-03T04:33:28;12.55;;;6.30;;
35777;SDS011;21899;42.662;23.316;2023-04-03T04:35:53;12.85;;;5.15;;
35777;SDS011;21899;42.662;23.316;2023-04-03T04:38:18;13.23;;;5.88;;
35777;SDS011;21899;42.662;23.316;2023-04-03T04:40:44;11.15;;;4.78;;
35777;SDS011;21899;42.662;23.316;2023-04-03T04:43:09;14.70;;;6.28;;
35777;SDS011;21899;42.662;23.316;2023-04-03T04:45:39;16.42;;;6.18;;
35777;SDS011;21899;42.662;23.316;2023-04-03T04:48:04;12.20;;;5.88;;
35777;SDS011;21899;42.662;23.316;2023-04-03T04:50:30;9.57;;;5.85;;
35777;SDS011;21899;42.662;23.316;2023-04-03T04:52:55;11.50;;;6.45;;
35777;SDS011;21899;42.662;23.316;2023-04-03T04:55:21;13.07;;;6.38;;
35777;SDS011;21899;42.662;23.316;2023-04-03T04:57:46;17.55;;;6.60;;
35777;SDS011;21899;42.662;23.316;2023-04-03T05:00:12;13.55;;;6.88;;
35777;SDS011;21899;42.662;23.316;2023-04-03T05:02:38;13.57;;;7.50;;
35777;SDS011;21899;42.662;23.316;2023-04-03T05:05:03;11.60;;;6.03;;
35777;SDS011;21899;42.662;23.316;2023-04-03T05:07:29;11.93;;;6.43;;
35777;SDS011;21899;42.662;23.316;2023-04-03T05:09:54;11.32;;;6.78;;
35777;SDS011;21899;42.662;23.316;2023-04-03T05:12:20;13.27;;;6.38;;
35777;SDS011;21899;42.662;23.316;2023-04-03T05:14:45;13.30;;;6.78;;
35777;SDS011;21899;42.662;23.316;2023-04-03T05:17:11;17.20;;;6.60;;
35777;SDS011;21899;42.662;23.316;2023-04-03T05:19:36;13.90;;;5.97;;
35777;SDS011;21899;42.662;23.316;2023-04-03T05:22:02;16.60;;;7.00;;
35777;SDS011;21899;42.662;23.316;2023-04-03T05:24:27;14.55;;;7.28;;
35777;SDS011;21899;42.662;23.316;2023-04-03T05:26:53;17.45;;;7.50;;
35777;SDS011;21899;42.662;23.316;2023-04-03T05:29:18;24.27;;;7.93;;
35777;SDS011;21899;42.662;23.316;2023-04-03T05:31:44;12.10;;;6.68;;
35777;SDS011;21899;42.662;23.316;2023-04-03T05:34:09;12.20;;;6.88;;
35777;SDS011;21899;42.662;23.316;2023-04-03T05:36:34;16.38;;;7.50;;
35777;SDS011;21899;42.662;23.316;2023-04-03T05:39:00;18.02;;;8.65;;
35777;SDS011;21899;42.662;23.316;2023-04-03T05:41:25;20.73;;;8.60;;
35777;SDS011;21899;42.662;23.316;2023-04-03T05:43:51;21.23;;;8.75;;
35777;SDS011;21899;42.662;23.316;2023-04-03T05:46:17;19.75;;;7.97;;
35777;SDS011;21899;42.662;23.316;2023-04-03T05:48:44;19.92;;;7.28;;
35777;SDS011;21899;42.662;23.316;2023-04-03T05:51:21;12.30;;;6.85;;
35777;SDS011;21899;42.662;23.316;2023-04-03T05:53:48;15.85;;;7.38;;
35777;SDS011;21899;42.662;23.316;2023-04-03T05:56:21;19.67;;;8.55;;
35777;SDS011;21899;42.662;23.316;2023-04-03T05:58:46;14.98;;;8.40;;
35777;SDS011;21899;42.662;23.316;2023-04-03T06:01:11;13.80;;;8.50;;
35777;SDS011;21899;42.662;23.316;2023-04-03T06:03:37;16.50;;;7.82;;
35777;SDS011;21899;42.662;23.316;2023-04-03T06:06:04;19.38;;;9.90;;
35777;SDS011;21899;42.662;23.316;2023-04-03T06:08:30;19.90;;;9.95;;
35777;SDS011;21899;42.662;23.316;2023-04-03T06:10:56;35.78;;;13.57;;
35777;SDS011;21899;42.662;23.316;2023-04-03T06:13:21;30.75;;;14.20;;
35777;SDS011;21899;42.662;23.316;2023-04-03T06:15:47;27.60;;;13.43;;
35777;SDS011;21899;42.662;23.316;2023-04-03T06:18:12;33.80;;;12.73;;
35777;SDS011;21899;42.662;23.316;2023-04-03T06:20:38;20.75;;;11.13;;
35777;SDS011;21899;42.662;23.316;2023-04-03T06:23:03;21.15;;;9.80;;
35777;SDS011;21899;42.662;23.316;2023-04-03T06:25:29;23.65;;;10.63;;
35777;SDS011;21899;42.662;23.316;2023-04-03T06:27:54;20.67;;;8.25;;
35777;SDS011;21899;42.662;23.316;2023-04-03T06:30:20;19.40;;;9.13;;
35777;SDS011;21899;42.662;23.316;2023-04-03T06:32:46;18.08;;;8.60;;
35777;SDS011;21899;42.662;23.316;2023-04-03T06:35:11;18.38;;;9.38;;
35777;SDS011;21899;42.662;23.316;2023-04-03T06:37:37;17.30;;;8.30;;
35777;SDS011;21899;42.662;23.316;2023-04-03T06:40:02;23.20;;;8.88;;
35777;SDS011;21899;42.662;23.316;2023-04-03T06:42:28;19.25;;;9.15;;
35777;SDS011;21899;42.662;23.316;2023-04-03T06:44:54;17.40;;;9.05;;
35777;SDS011;21899;42.662;23.316;2023-04-03T06:47:19;16.25;;;9.40;;
35777;SDS011;21899;42.662;23.316;2023-04-03T06:49:45;16.13;;;6.88;;
35777;SDS011;21899;42.662;23.316;2023-04-03T06:52:10;16.70;;;7.40;;
35777;SDS011;21899;42.662;23.316;2023-04-03T06:54:37;12.85;;;7.50;;
35777;SDS011;21899;42.662;23.316;2023-04-03T06:57:03;19.85;;;7.70;;
35777;SDS011;21899;42.662;23.316;2023-04-03T06:59:28;12.20;;;6.18;;
35777;SDS011;21899;42.662;23.316;2023-04-03T07:01:54;16.98;;;7.55;;
35777;SDS011;21899;42.662;23.316;2023-04-03T07:04:20;12.65;;;6.13;;
35777;SDS011;21899;42.662;23.316;2023-04-03T07:06:45;14.00;;;6.10;;
35777;SDS011;21899;42.662;23.316;2023-04-03T07:09:12;9.90;;;5.75;;
35777;SDS011;21899;42.662;23.316;2023-04-03T07:11:39;16.25;;;6.60;;
35777;SDS011;21899;42.662;23.316;2023-04-03T07:14:04;10.90;;;6.40;;
35777;SDS011;21899;42.662;23.316;2023-04-03T07:16:31;14.05;;;6.65;;
35777;SDS011;21899;42.662;23.316;2023-04-03T07:18:57;14.63;;;6.00;;
35777;SDS011;21899;42.662;23.316;2023-04-03T07:21:22;15.93;;;6.30;;
35777;SDS011;21899;42.662;23.316;2023-04-03T07:23:48;12.35;;;7.00;;
35777;SDS011;21899;42.662;23.316;2023-04-03T07:26:13;15.90;;;7.75;;
35777;SDS011;21899;42.662;23.316;2023-04-03T07:28:39;14.82;;;8.10;;
35777;SDS011;21899;42.662;23.316;2023-04-03T07:31:06;16.23;;;8.55;;
35777;SDS011;21899;42.662;23.316;2023-04-03T07:33:36;13.23;;;7.85;;
35777;SDS011;21899;42.662;23.316;2023-04-03T07:36:02;12.13;;;6.82;;
35777;SDS011;21899;42.662;23.316;2023-04-03T07:38:27;11.98;;;5.90;;
35777;SDS011;21899;42.662;23.316;2023-04-03T07:40:53;14.88;;;7.55;;
35777;SDS011;21899;42.662;23.316;2023-04-03T07:43:19;22.25;;;6.75;;
35777;SDS011;21899;42.662;23.316;2023-04-03T07:45:46;12.10;;;6.80;;
35777;SDS011;21899;42.662;23.316;2023-04-03T07:48:14;16.60;;;6.80;;
35777;SDS011;21899;42.662;23.316;2023-04-03T07:50:42;18.15;;;7.60;;
35777;SDS011;21899;42.662;23.316;2023-04-03T07:53:08;12.80;;;7.28;;
35777;SDS011;21899;42.662;23.316;2023-04-03T07:55:33;19.80;;;8.00;;
35777;SDS011;21899;42.662;23.316;2023-04-03T07:57:59;22.92;;;8.85;;
35777;SDS011;21899;42.662;23.316;2023-04-03T08:00:25;12.38;;;8.20;;
35777;SDS011;21899;42.662;23.316;2023-04-03T08:02:50;20.60;;;8.75;;
35777;SDS011;21899;42.662;23.316;2023-04-03T08:05:19;17.45;;;8.40;;
35777;SDS011;21899;42.662;23.316;2023-04-03T08:07:46;14.95;;;8.70;;
35777;SDS011;21899;42.662;23.316;2023-04-03T08:10:11;15.43;;;8.65;;
35777;SDS011;21899;42.662;23.316;2023-04-03T08:12:37;17.77;;;8.38;;
35777;SDS011;21899;42.662;23.316;2023-04-03T08:15:03;22.52;;;11.32;;
35777;SDS011;21899;42.662;23.316;2023-04-03T08:17:29;15.75;;;8.38;;
35777;SDS011;21899;42.662;23.316;2023-04-03T08:19:55;15.43;;;8.13;;
35777;SDS011;21899;42.662;23.316;2023-04-03T08:22:20;16.70;;;7.78;;
35777;SDS011;21899;42.662;23.316;2023-04-03T08:24:46;18.23;;;7.35;;
35777;SDS011;21899;42.662;23.316;2023-04-03T08:27:11;13.00;;;7.53;;
35777;SDS011;21899;42.662;23.316;2023-04-03T08:29:37;15.23;;;7.13;;
35777;SDS011;21899;42.662;23.316;2023-04-03T08:32:03;26.30;;;11.38;;
35777;SDS011;21899;42.662;23.316;2023-04-03T08:34:29;20.23;;;12.13;;
35777;SDS011;21899;42.662;23.316;2023-04-03T08:36:55;28.90;;;14.68;;
35777;SDS011;21899;42.662;23.316;2023-04-03T08:39:21;25.95;;;15.60;;
35777;SDS011;21899;42.662;23.316;2023-04-03T08:41:46;22.75;;;13.88;;
35777;SDS011;21899;42.662;23.316;2023-04-03T08:44:25;25.15;;;14.38;;
35777;SDS011;21899;42.662;23.316;2023-04-03T08:49:55;34.70;;;17.15;;
35777;SDS011;21899;42.662;23.316;2023-04-03T08:55:04;25.48;;;13.60;;
35777;SDS011;21899;42.662;23.316;2023-04-03T08:57:33;26.58;;;13.15;;
35777;SDS011;21899;42.662;23.316;2023-04-03T09:00:06;24.15;;;12.88;;
35777;SDS011;21899;42.662;23.316;2023-04-03T09:02:48;22.27;;;12.38;;
35777;SDS011;21899;42.662;23.316;2023-04-03T09:07:46;26.17;;;14.80;;
35777;SDS011;21899;42.662;23.316;2023-04-03T09:10:14;33.70;;;15.75;;
35777;SDS011;21899;42.662;23.316;2023-04-03T09:12:44;24.15;;;14.05;;
35777;SDS011;21899;42.662;23.316;2023-04-03T09:15:22;22.08;;;13.23;;
35777;SDS011;21899;42.662;23.316;2023-04-03T09:23:30;23.23;;;13.55;;
35777;SDS011;21899;42.662;23.316;2023-04-03T09:26:11;22.65;;;11.77;;
35777;SDS011;21899;42.662;23.316;2023-04-03T09:28:41;21.77;;;10.75;;
35777;SDS011;21899;42.662;23.316;2023-04-03T09:31:14;28.48;;;12.68;;
35777;SDS011;21899;42.662;23.316;2023-04-03T09:33:44;23.02;;;10.55;;
35777;SDS011;21899;42.662;23.316;2023-04-03T09:36:11;18.60;;;9.13;;
35777;SDS011;21899;42.662;23.316;2023-04-03T09:38:36;16.55;;;8.75;;
35777;SDS011;21899;42.662;23.316;2023-04-03T09:41:04;14.90;;;7.13;;
35777;SDS011;21899;42.662;23.316;2023-04-03T09:43:40;16.48;;;6.85;;
35777;SDS011;21899;42.662;23.316;2023-04-03T09:46:33;9.05;;;4.30;;
35777;SDS011;21899;42.662;23.316;2023-04-03T09:49:00;8.60;;;4.63;;
35777;SDS011;21899;42.662;23.316;2023-04-03T09:51:28;10.40;;;4.70;;
35777;SDS011;21899;42.662;23.316;2023-04-03T09:53:54;8.88;;;4.50;;
35777;SDS011;21899;42.662;23.316;2023-04-03T09:56:22;10.27;;;4.35;;
35777;SDS011;21899;42.662;23.316;2023-04-03T09:58:49;7.97;;;4.13;;
35777;SDS011;21899;42.662;23.316;2023-04-03T10:01:39;5.22;;;3.22;;
35777;SDS011;21899;42.662;23.316;2023-04-03T10:06:40;7.95;;;4.60;;
35777;SDS011;21899;42.662;23.316;2023-04-03T10:12:03;7.97;;;4.07;;
35777;SDS011;21899;42.662;23.316;2023-04-03T10:14:35;7.60;;;4.00;;
35777;SDS011;21899;42.662;23.316;2023-04-03T10:19:47;9.40;;;4.53;;
35777;SDS011;21899;42.662;23.316;2023-04-03T10:23:02;15.30;;;5.13;;
35777;SDS011;21899;42.662;23.316;2023-04-03T10:47:24;12.88;;;4.70;;
35777;SDS011;21899;42.662;23.316;2023-04-03T10:58:19;7.68;;;3.47;;
35777;SDS011;21899;42.662;23.316;2023-04-03T11:00:51;6.90;;;3.35;;
35777;SDS011;21899;42.662;23.316;2023-04-03T11:06:10;14.68;;;4.90;;
35777;SDS011;21899;42.662;23.316;2023-04-03T11:11:13;4.57;;;2.67;;
35777;SDS011;21899;42.662;23.316;2023-04-03T11:13:50;7.00;;;2.90;;
35777;SDS011;21899;42.662;23.316;2023-04-03T11:16:27;10.55;;;4.25;;
35777;SDS011;21899;42.662;23.316;2023-04-03T11:18:56;9.40;;;3.33;;
35777;SDS011;21899;42.662;23.316;2023-04-03T11:24:05;5.93;;;3.08;;
35777;SDS011;21899;42.662;23.316;2023-04-03T11:26:42;8.55;;;3.60;;
35777;SDS011;21899;42.662;23.316;2023-04-03T11:29:10;7.00;;;3.17;;
35777;SDS011;21899;42.662;23.316;2023-04-03T11:40:08;7.38;;;3.58;;
35777;SDS011;21899;42.662;23.316;2023-04-03T11:42:47;9.48;;;4.05;;
35777;SDS011;21899;42.662;23.316;2023-04-03T11:47:58;10.32;;;4.90;;
35777;SDS011;21899;42.662;23.316;2023-04-03T12:13:42;7.50;;;3.95;;
35777;SDS011;21899;42.662;23.316;2023-04-03T12:19:03;7.72;;;3.65;;
35777;SDS011;21899;42.662;23.316;2023-04-03T12:24:35;8.90;;;4.15;;
35777;SDS011;21899;42.662;23.316;2023-04-03T12:29:56;7.45;;;4.78;;
35777;SDS011;21899;42.662;23.316;2023-04-03T12:35:10;11.00;;;6.25;;
35777;SDS011;21899;42.662;23.316;2023-04-03T12:38:25;9.65;;;5.00;;
35777;SDS011;21899;42.662;23.316;2023-04-03T12:46:48;7.82;;;5.47;;
35777;SDS011;21899;42.662;23.316;2023-04-03T12:52:17;12.90;;;6.53;;
35777;SDS011;21899;42.662;23.316;2023-04-03T12:54:47;9.43;;;6.88;;
35777;SDS011;21899;42.662;23.316;2023-04-03T12:59:48;9.23;;;6.28;;
35777;SDS011;21899;42.662;23.316;2023-04-03T13:02:31;10.75;;;7.13;;
35777;SDS011;21899;42.662;23.316;2023-04-03T13:05:08;9.35;;;5.68;;
35777;SDS011;21899;42.662;23.316;2023-04-03T13:07:40;9.60;;;6.22;;
35777;SDS011;21899;42.662;23.316;2023-04-03T13:15:21;11.02;;;6.45;;
35777;SDS011;21899;42.662;23.316;2023-04-03T13:17:56;8.60;;;5.95;;
35777;SDS011;21899;42.662;23.316;2023-04-03T13:20:26;11.57;;;6.63;;
35777;SDS011;21899;42.662;23.316;2023-04-03T13:22:57;15.68;;;7.13;;
35777;SDS011;21899;42.662;23.316;2023-04-03T13:25:30;12.38;;;7.25;;
35777;SDS011;21899;42.662;23.316;2023-04-03T13:27:58;11.77;;;8.20;;
35777;SDS011;21899;42.662;23.316;2023-04-03T13:32:56;12.32;;;7.10;;
35777;SDS011;21899;42.662;23.316;2023-04-03T13:35:34;11.15;;;7.30;;
35777;SDS011;21899;42.662;23.316;2023-04-03T13:41:02;9.60;;;5.90;;
35777;SDS011;21899;42.662;23.316;2023-04-03T13:43:32;10.40;;;6.50;;
35777;SDS011;21899;42.662;23.316;2023-04-03T13:48:45;15.73;;;7.88;;
35777;SDS011;21899;42.662;23.316;2023-04-03T13:51:17;17.55;;;7.78;;
35777;SDS011;21899;42.662;23.316;2023-04-03T13:56:19;14.30;;;8.93;;
35777;SDS011;21899;42.662;23.316;2023-04-03T14:01:48;13.60;;;8.75;;
35777;SDS011;21899;42.662;23.316;2023-04-03T14:04:25;17.08;;;10.15;;
35777;SDS011;21899;42.662;23.316;2023-04-03T14:06:53;15.75;;;9.07;;
35777;SDS011;21899;42.662;23.316;2023-04-03T14:09:19;12.15;;;8.55;;
35777;SDS011;21899;42.662;23.316;2023-04-03T14:11:47;14.63;;;9.57;;
35777;SDS011;21899;42.662;23.316;2023-04-03T14:14:17;10.77;;;8.18;;
35777;SDS011;21899;42.662;23.316;2023-04-03T14:16:47;12.57;;;7.95;;
35777;SDS011;21899;42.662;23.316;2023-04-03T14:19:20;12.43;;;7.60;;
35777;SDS011;21899;42.662;23.316;2023-04-03T14:21:48;12.30;;;7.18;;
35777;SDS011;21899;42.662;23.316;2023-04-03T14:24:15;16.92;;;8.07;;
35777;SDS011;21899;42.662;23.316;2023-04-03T14:26:41;11.45;;;8.43;;
35777;SDS011;21899;42.662;23.316;2023-04-03T14:29:09;13.70;;;8.50;;
35777;SDS011;21899;42.662;23.316;2023-04-03T14:31:36;11.95;;;8.10;;
35777;SDS011;21899;42.662;23.316;2023-04-03T14:34:01;12.35;;;7.75;;
35777;SDS011;21899;42.662;23.316;2023-04-03T14:36:27;11.05;;;7.80;;
35777;SDS011;21899;42.662;23.316;2023-04-03T14:38:54;11.95;;;8.35;;
35777;SDS011;21899;42.662;23.316;2023-04-03T14:41:22;9.38;;;6.07;;
35777;SDS011;21899;42.662;23.316;2023-04-03T14:43:49;13.02;;;6.70;;
35777;SDS011;21899;42.662;23.316;2023-04-03T14:48:46;9.35;;;6.80;;
35777;SDS011;21899;42.662;23.316;2023-04-03T14:51:13;11.02;;;7.13;;
35777;SDS011;21899;42.662;23.316;2023-04-03T14:53:40;9.75;;;6.95;;
35777;SDS011;21899;42.662;23.316;2023-04-03T14:56:26;10.35;;;6.57;;
35777;SDS011;21899;42.662;23.316;2023-04-03T14:58:55;8.77;;;6.25;;
35777;SDS011;21899;42.662;23.316;2023-04-03T15:01:25;8.30;;;6.55;;
35777;SDS011;21899;42.662;23.316;2023-04-03T15:03:52;12.55;;;7.38;;
35777;SDS011;21899;42.662;23.316;2023-04-03T15:06:17;10.05;;;7.22;;
35777;SDS011;21899;42.662;23.316;2023-04-03T15:08:43;9.15;;;6.65;;
35777;SDS011;21899;42.662;23.316;2023-04-03T15:11:10;11.75;;;7.18;;
35777;SDS011;21899;42.662;23.316;2023-04-03T15:13:36;12.45;;;7.20;;
35777;SDS011;21899;42.662;23.316;2023-04-03T15:16:04;7.82;;;6.05;;
35777;SDS011;21899;42.662;23.316;2023-04-03T15:18:43;9.85;;;6.43;;
35777;SDS011;21899;42.662;23.316;2023-04-03T15:21:10;8.23;;;5.88;;
35777;SDS011;21899;42.662;23.316;2023-04-03T15:23:35;10.05;;;7.25;;
35777;SDS011;21899;42.662;23.316;2023-04-03T15:26:01;8.65;;;5.90;;
35777;SDS011;21899;42.662;23.316;2023-04-03T15:28:40;9.38;;;6.22;;
35777;SDS011;21899;42.662;23.316;2023-04-03T15:31:07;8.98;;;6.63;;
35777;SDS011;21899;42.662;23.316;2023-04-03T15:33:33;10.85;;;7.03;;
35777;SDS011;21899;42.662;23.316;2023-04-03T15:35:59;10.77;;;7.20;;
35777;SDS011;21899;42.662;23.316;2023-04-03T15:38:24;11.20;;;7.43;;
35777;SDS011;21899;42.662;23.316;2023-04-03T15:40:50;13.80;;;7.10;;
35777;SDS011;21899;42.662;23.316;2023-04-03T15:43:15;11.30;;;7.80;;
35777;SDS011;21899;42.662;23.316;2023-04-03T15:45:41;11.02;;;7.70;;
35777;SDS011;21899;42.662;23.316;2023-04-03T15:48:08;11.82;;;8.45;;
35777;SDS011;21899;42.662;23.316;2023-04-03T15:50:34;11.98;;;7.20;;
35777;SDS011;21899;42.662;23.316;2023-04-03T15:53:00;12.57;;;7.75;;
35777;SDS011;21899;42.662;23.316;2023-04-03T15:55:27;12.95;;;8.63;;
35777;SDS011;21899;42.662;23.316;2023-04-03T15:57:54;13.50;;;8.23;;
35777;SDS011;21899;42.662;23.316;2023-04-03T16:00:20;15.80;;;11.00;;
35777;SDS011;21899;42.662;23.316;2023-04-03T16:02:46;16.30;;;10.27;;
35777;SDS011;21899;42.662;23.316;2023-04-03T16:05:13;14.90;;;9.73;;
35777;SDS011;21899;42.662;23.316;2023-04-03T16:07:42;13.15;;;9.70;;
35777;SDS011;21899;42.662;23.316;2023-04-03T16:10:08;11.73;;;8.30;;
35777;SDS011;21899;42.662;23.316;2023-04-03T16:12:35;11.05;;;8.20;;
35777;SDS011;21899;42.662;23.316;2023-04-03T16:15:01;16.88;;;9.52;;
35777;SDS011;21899;42.662;23.316;2023-04-03T16:17:27;16.13;;;10.60;;
35777;SDS011;21899;42.662;23.316;2023-04-03T16:19:53;22.35;;;13.25;;
35777;SDS011;21899;42.662;23.316;2023-04-03T16:22:20;17.52;;;12.88;;
35777;SDS011;21899;42.662;23.316;2023-04-03T16:24:46;17.58;;;11.35;;
35777;SDS011;21899;42.662;23.316;2023-04-03T16:27:13;14.50;;;11.07;;
35777;SDS011;21899;42.662;23.316;2023-04-03T16:29:38;17.10;;;11.27;;
35777;SDS011;21899;42.662;23.316;2023-04-03T16:32:04;16.98;;;9.27;;
35777;SDS011;21899;42.662;23.316;2023-04-03T16:34:30;13.77;;;8.38;;
35777;SDS011;21899;42.662;23.316;2023-04-03T16:36:57;14.02;;;8.60;;
35777;SDS011;21899;42.662;23.316;2023-04-03T16:39:41;11.55;;;6.70;;
35777;SDS011;21899;42.662;23.316;2023-04-03T16:42:06;12.32;;;7.82;;
35777;SDS011;21899;42.662;23.316;2023-04-03T16:44:34;15.32;;;8.98;;
35777;SDS011;21899;42.662;23.316;2023-04-03T16:46:59;9.38;;;6.63;;
35777;SDS011;21899;42.662;23.316;2023-04-03T16:49:25;10.32;;;5.68;;
35777;SDS011;21899;42.662;23.316;2023-04-03T16:51:52;10.10;;;5.68;;
35777;SDS011;21899;42.662;23.316;2023-04-03T16:54:17;10.35;;;6.85;;